Navios Indigo — V7NX2 — position and weather

sailwx.info

Track history (hours):
 
Tides and Currents Weather Stations Pressure Air Temp Water Temp Dewpoint Dewpoint Depression Visibility Wind Speed Wind Dir Waves Ship Positions

Navios Indigo

Last reported at 2018-Aug-19 20:49 UTC. Time now 2018-Aug-21 03:57 UTC.
Position N 32°57' E 034°36'.

Length 261 m; draft 9.6 m.

Type: Ship. MMSI: 538003035.

Date/timePositionNaut miles runAvg speedWind from/ knotsBaromVisibWave heightAir tempDewpointWater temp
2018-Aug-19 20:49N 32°57' E 034°36'618.6
2018-Aug-19 20:30N 32°56' E 034°42'917.5
2018-Aug-19 20:00N 32°53' E 034°52'7 0.2
2018-Aug-18 16:47N 32°51' E 034°60'2 6.1
2018-Aug-18 16:30N 32°52' E 034°58'3 6.2
2018-Aug-18 15:57N 32°52' E 034°54'4 7.8
2018-Aug-18 15:30N 32°53' E 034°50'611.3
2018-Aug-18 14:59N 32°54' E 034°43'612.5
2018-Aug-18 14:30N 32°55' E 034°36'  
2018-Aug-15 13:20N 37°29' E 023°47'514.3
2018-Aug-15 13:00N 37°34' E 023°45'714.4
2018-Aug-15 12:30N 37°40' E 023°42'714.7
2018-Aug-15 12:00N 37°47' E 023°38'714.5
2018-Aug-15 11:30N 37°54' E 023°37'3 6.0
2018-Aug-15 11:00N 37°57' E 023°36'0 0.0
2018-Aug-15 10:30N 37°57' E 023°36'0 0.0
2018-Aug-15 10:00N 37°57' E 023°36'0 0.0
2018-Aug-15 09:30N 37°57' E 023°36'0 0.0
2018-Aug-15 09:00N 37°57' E 023°36'0 0.0
2018-Aug-15 08:24N 37°57' E 023°36'0 0.0
2018-Aug-15 08:00N 37°57' E 023°36'0 0.0
2018-Aug-15 06:21N 37°57' E 023°36'0 0.0
2018-Aug-15 06:00N 37°57' E 023°36'0 0.0
2018-Aug-15 05:30N 37°57' E 023°36'0 0.0
2018-Aug-15 05:00N 37°57' E 023°36'0 0.0
2018-Aug-15 01:42N 37°57' E 023°36'0 0.0
2018-Aug-15 01:18N 37°57' E 023°36'0 0.0
2018-Aug-15 00:45N 37°57' E 023°36'0 0.0
2018-Aug-15 00:30N 37°57' E 023°36'0 0.0
2018-Aug-15 00:00N 37°57' E 023°36'0 0.0
2018-Aug-14 23:24N 37°57' E 023°36'0 0.0
2018-Aug-14 23:00N 37°57' E 023°36'0 0.0
2018-Aug-14 22:30N 37°57' E 023°36'0 0.0
2018-Aug-14 22:00N 37°57' E 023°36'0 0.0
2018-Aug-14 21:30N 37°57' E 023°36'0 0.0
2018-Aug-14 21:00N 37°57' E 023°36'0 0.0
2018-Aug-14 20:30N 37°57' E 023°36'0 0.0
2018-Aug-14 20:00N 37°57' E 023°36'0 0.0
2018-Aug-14 19:30N 37°57' E 023°36'0 0.0
2018-Aug-14 19:00N 37°57' E 023°36'0 0.0
2018-Aug-14 18:30N 37°57' E 023°36'0 0.0
2018-Aug-14 18:00N 37°57' E 023°36'0 0.0
2018-Aug-14 17:27N 37°57' E 023°36'0 0.0
2018-Aug-14 17:00N 37°57' E 023°36'0 0.0
2018-Aug-14 16:30N 37°57' E 023°36'0 0.0
2018-Aug-14 16:00N 37°57' E 023°36'0 0.0
2018-Aug-14 15:30N 37°57' E 023°36'0 0.0
2018-Aug-14 15:00N 37°57' E 023°36'0 0.0
2018-Aug-14 14:30N 37°57' E 023°36'0 0.0
2018-Aug-14 14:00N 37°57' E 023°36'0 0.0
2018-Aug-14 13:30N 37°57' E 023°36'0 0.0
2018-Aug-14 13:00N 37°57' E 023°36'0 0.0
2018-Aug-14 12:30N 37°57' E 023°36'0 0.0
2018-Aug-14 12:00N 37°57' E 023°36'0 0.0
2018-Aug-14 11:30N 37°57' E 023°36'0 0.5
2018-Aug-14 11:01N 37°57' E 023°36'2 4.6
2018-Aug-14 10:31N 37°55' E 023°36'0 1.0
2018-Aug-14 10:01N 37°54' E 023°35'3 6.0
2018-Aug-14 09:31N 37°52' E 023°38'815.0
2018-Aug-14 09:00N 37°45' E 023°42'916.9
2018-Aug-14 08:30N 37°37' E 023°45'918.0
2018-Aug-14 08:00N 37°28' E 023°43'918.0
2018-Aug-14 07:30N 37°19' E 023°41'41914.9
2018-Aug-13 03:27N 36°21' E 015°03'818.0
2018-Aug-13 03:00N 36°21' E 014°53'918.1
2018-Aug-13 02:30N 36°22' E 014°42'917.9
2018-Aug-13 02:00N 36°23' E 014°31'917.9
2018-Aug-13 01:30N 36°27' E 014°21'917.9
2018-Aug-13 01:00N 36°30' E 014°11'917.7
2018-Aug-13 00:28N 36°34' E 013°60'817.7
2018-Aug-13 00:00N 36°37' E 013°50'917.6
2018-Aug-12 23:30N 36°40' E 013°40'917.7
2018-Aug-12 23:00N 36°43' E 013°30'917.4
2018-Aug-12 22:30N 36°46' E 013°20'917.5
2018-Aug-12 22:00N 36°49' E 013°09'917.5
2018-Aug-12 21:30N 36°53' E 012°59'817.2
2018-Aug-12 21:00N 36°55' E 012°49'917.0
2018-Aug-12 20:30N 36°57' E 012°39'816.8
2018-Aug-12 20:00N 36°59' E 012°29'917.4
2018-Aug-12 19:30N 37°02' E 012°18'816.9
2018-Aug-12 19:00N 37°04' E 012°08'916.6
2018-Aug-12 18:28N 37°08' E 011°57'916.6
2018-Aug-12 17:55N 37°11' E 011°47'1416.8
2018-Aug-12 17:05N 37°15' E 011°30'7416.9
2018-Aug-12 12:44N 37°33' E 010°00'417.1
2018-Aug-12 12:30N 37°32' E 009°55'3817.2
2018-Aug-12 10:16N 37°21' E 009°09'19717.2
2018-Aug-11 22:50N 37°08' E 005°02'617.4
2018-Aug-11 22:29N 37°07' E 004°54'817.3
2018-Aug-11 22:00N 37°06' E 004°44'4516.3
2018-Aug-11 19:12N 37°01' E 003°47'1116.9
2018-Aug-11 18:32N 37°00' E 003°33'116.9
2018-Aug-11 18:31N 37°00' E 003°33'15017.4
2018-Aug-11 09:55N 36°42' E 000°27'27817.0
2018-Aug-10 17:32N 35°59' W 005°14'117.8
2018-Aug-10 17:30N 35°59' W 005°15'919.2
2018-Aug-10 17:00N 35°57' W 005°27'13916.8
2018-Aug-10 08:43N 34°13' W 007°20'1818.3
2018-Aug-10 07:44N 33°57' W 007°29'419.0
2018-Aug-10 07:30N 33°53' W 007°30'1118.8
2018-Aug-10 06:54N 33°42' W 007°34'512.0
2018-Aug-10 06:28N 33°37' W 007°36'  
Track history (hours):
 
Tides and Currents Weather Stations Pressure Air Temp Water Temp Dewpoint Dewpoint Depression Visibility Wind Speed Wind Dir Waves Ship Positions

Navios Indigo

Last reported at 2018-Aug-19 20:49 UTC. Time now 2018-Aug-21 03:57 UTC.
Position N 32°57' E 034°36'.

Length 261 m; draft 9.6 m.

Type: Ship. MMSI: 538003035.

Date/timePositionNaut miles runAvg speedWind from/ knotsBaromVisibWave heightAir tempDewpointWater temp
2018-Aug-19 20:49N 32°57' E 034°36'618.6
2018-Aug-19 20:30N 32°56' E 034°42'917.5
2018-Aug-19 20:00N 32°53' E 034°52'7 0.2
2018-Aug-18 16:47N 32°51' E 034°60'2 6.1
2018-Aug-18 16:30N 32°52' E 034°58'3 6.2
2018-Aug-18 15:57N 32°52' E 034°54'4 7.8
2018-Aug-18 15:30N 32°53' E 034°50'611.3
2018-Aug-18 14:59N 32°54' E 034°43'612.5
2018-Aug-18 14:30N 32°55' E 034°36'  
2018-Aug-15 13:20N 37°29' E 023°47'514.3
2018-Aug-15 13:00N 37°34' E 023°45'714.4
2018-Aug-15 12:30N 37°40' E 023°42'714.7
2018-Aug-15 12:00N 37°47' E 023°38'714.5
2018-Aug-15 11:30N 37°54' E 023°37'3 6.0
2018-Aug-15 11:00N 37°57' E 023°36'0 0.0
2018-Aug-15 10:30N 37°57' E 023°36'0 0.0
2018-Aug-15 10:00N 37°57' E 023°36'0 0.0
2018-Aug-15 09:30N 37°57' E 023°36'0 0.0
2018-Aug-15 09:00N 37°57' E 023°36'0 0.0
2018-Aug-15 08:24N 37°57' E 023°36'0 0.0
2018-Aug-15 08:00N 37°57' E 023°36'0 0.0
2018-Aug-15 06:21N 37°57' E 023°36'0 0.0
2018-Aug-15 06:00N 37°57' E 023°36'0 0.0
2018-Aug-15 05:30N 37°57' E 023°36'0 0.0
2018-Aug-15 05:00N 37°57' E 023°36'0 0.0
2018-Aug-15 01:42N 37°57' E 023°36'0 0.0
2018-Aug-15 01:18N 37°57' E 023°36'0 0.0
2018-Aug-15 00:45N 37°57' E 023°36'0 0.0
2018-Aug-15 00:30N 37°57' E 023°36'0 0.0
2018-Aug-15 00:00N 37°57' E 023°36'0 0.0
2018-Aug-14 23:24N 37°57' E 023°36'0 0.0
2018-Aug-14 23:00N 37°57' E 023°36'0 0.0
2018-Aug-14 22:30N 37°57' E 023°36'0 0.0
2018-Aug-14 22:00N 37°57' E 023°36'0 0.0
2018-Aug-14 21:30N 37°57' E 023°36'0 0.0
2018-Aug-14 21:00N 37°57' E 023°36'0 0.0
2018-Aug-14 20:30N 37°57' E 023°36'0 0.0
2018-Aug-14 20:00N 37°57' E 023°36'0 0.0
2018-Aug-14 19:30N 37°57' E 023°36'0 0.0
2018-Aug-14 19:00N 37°57' E 023°36'0 0.0
2018-Aug-14 18:30N 37°57' E 023°36'0 0.0
2018-Aug-14 18:00N 37°57' E 023°36'0 0.0
2018-Aug-14 17:27N 37°57' E 023°36'0 0.0
2018-Aug-14 17:00N 37°57' E 023°36'0 0.0
2018-Aug-14 16:30N 37°57' E 023°36'0 0.0
2018-Aug-14 16:00N 37°57' E 023°36'0 0.0
2018-Aug-14 15:30N 37°57' E 023°36'0 0.0
2018-Aug-14 15:00N 37°57' E 023°36'0 0.0
2018-Aug-14 14:30N 37°57' E 023°36'0 0.0
2018-Aug-14 14:00N 37°57' E 023°36'0 0.0
2018-Aug-14 13:30N 37°57' E 023°36'0 0.0
2018-Aug-14 13:00N 37°57' E 023°36'0 0.0
2018-Aug-14 12:30N 37°57' E 023°36'0 0.0
2018-Aug-14 12:00N 37°57' E 023°36'0 0.0
2018-Aug-14 11:30N 37°57' E 023°36'0 0.5
2018-Aug-14 11:01N 37°57' E 023°36'2 4.6
2018-Aug-14 10:31N 37°55' E 023°36'0 1.0
2018-Aug-14 10:01N 37°54' E 023°35'3 6.0
2018-Aug-14 09:31N 37°52' E 023°38'815.0
2018-Aug-14 09:00N 37°45' E 023°42'916.9
2018-Aug-14 08:30N 37°37' E 023°45'918.0
2018-Aug-14 08:00N 37°28' E 023°43'918.0
2018-Aug-14 07:30N 37°19' E 023°41'41914.9
2018-Aug-13 03:27N 36°21' E 015°03'818.0
2018-Aug-13 03:00N 36°21' E 014°53'918.1
2018-Aug-13 02:30N 36°22' E 014°42'917.9
2018-Aug-13 02:00N 36°23' E 014°31'917.9
2018-Aug-13 01:30N 36°27' E 014°21'917.9
2018-Aug-13 01:00N 36°30' E 014°11'917.7
2018-Aug-13 00:28N 36°34' E 013°60'817.7
2018-Aug-13 00:00N 36°37' E 013°50'917.6
2018-Aug-12 23:30N 36°40' E 013°40'917.7
2018-Aug-12 23:00N 36°43' E 013°30'917.4
2018-Aug-12 22:30N 36°46' E 013°20'917.5
2018-Aug-12 22:00N 36°49' E 013°09'917.5
2018-Aug-12 21:30N 36°53' E 012°59'817.2
2018-Aug-12 21:00N 36°55' E 012°49'917.0
2018-Aug-12 20:30N 36°57' E 012°39'816.8
2018-Aug-12 20:00N 36°59' E 012°29'917.4
2018-Aug-12 19:30N 37°02' E 012°18'816.9
2018-Aug-12 19:00N 37°04' E 012°08'916.6
2018-Aug-12 18:28N 37°08' E 011°57'916.6
2018-Aug-12 17:55N 37°11' E 011°47'1416.8
2018-Aug-12 17:05N 37°15' E 011°30'7416.9
2018-Aug-12 12:44N 37°33' E 010°00'417.1
2018-Aug-12 12:30N 37°32' E 009°55'3817.2
2018-Aug-12 10:16N 37°21' E 009°09'19717.2
2018-Aug-11 22:50N 37°08' E 005°02'617.4
2018-Aug-11 22:29N 37°07' E 004°54'817.3
2018-Aug-11 22:00N 37°06' E 004°44'4516.3
2018-Aug-11 19:12N 37°01' E 003°47'1116.9
2018-Aug-11 18:32N 37°00' E 003°33'116.9
2018-Aug-11 18:31N 37°00' E 003°33'15017.4
2018-Aug-11 09:55N 36°42' E 000°27'27817.0
2018-Aug-10 17:32N 35°59' W 005°14'117.8
2018-Aug-10 17:30N 35°59' W 005°15'919.2
2018-Aug-10 17:00N 35°57' W 005°27'13916.8
2018-Aug-10 08:43N 34°13' W 007°20'1818.3
2018-Aug-10 07:44N 33°57' W 007°29'419.0
2018-Aug-10 07:30N 33°53' W 007°30'1118.8
2018-Aug-10 06:54N 33°42' W 007°34'512.0
2018-Aug-10 06:28N 33°37' W 007°36'  

Dump ship's entire track history